EZY806B EGPH-EGKK
Flight info
| Callsign | EZY806B |
|---|---|
| Flight time | 1h 18m |
| Altitude | 33000 |
| Route | GOSAM P600 FENIK L612 NAVSO DCT ADZOP DCT EGTOC DCT KEPAD L151 DISIT |
| Aircraft | A320/M-SDE3FGHIRWY/LB1 |
Departure
| Time | 2026-04-20 18:09 |
|---|---|
| Airport | Edinburgh Airport (EGPH) |
Arrival
| Time | 2026-04-20 19:27 |
|---|---|
| Airport | London Gatwick Airport (EGKK) |
| Time | Latitude | Longitude | Altitude | Speed | Heading |
|---|---|---|---|---|---|
| 2026-04-20 17:30 | 55.94836 | -3.36634 | 112 ft | 0 kts | 89° |
| 2026-04-20 17:56 | 55.94836 | -3.36647 | 113 ft | 3 kts | 88° |
| 2026-04-20 17:57 | 55.94834 | -3.36695 | 113 ft | 4 kts | 81° |
| 2026-04-20 17:57 | 55.94828 | -3.36742 | 112 ft | 4 kts | 64° |
| 2026-04-20 17:57 | 55.94813 | -3.36775 | 113 ft | 4 kts | 13° |
| 2026-04-20 17:57 | 55.94803 | -3.36777 | 113 ft | 1 kts | 359° |
| 2026-04-20 18:01 | 55.94819 | -3.36778 | 113 ft | 10 kts | 359° |
| 2026-04-20 18:01 | 55.94890 | -3.36801 | 114 ft | 10 kts | 337° |
| 2026-04-20 18:02 | 55.94920 | -3.36886 | 116 ft | 8 kts | 265° |
| 2026-04-20 18:02 | 55.94901 | -3.36969 | 115 ft | 8 kts | 241° |
| 2026-04-20 18:02 | 55.94858 | -3.37099 | 116 ft | 16 kts | 239° |
| 2026-04-20 18:02 | 55.94765 | -3.37333 | 116 ft | 30 kts | 220° |
| 2026-04-20 18:03 | 55.94660 | -3.37669 | 114 ft | 27 kts | 245° |
| 2026-04-20 18:03 | 55.94567 | -3.37959 | 115 ft | 27 kts | 238° |
| 2026-04-20 18:03 | 55.94468 | -3.38242 | 114 ft | 23 kts | 239° |
| 2026-04-20 18:03 | 55.94385 | -3.38492 | 115 ft | 16 kts | 239° |
| 2026-04-20 18:04 | 55.94326 | -3.38668 | 116 ft | 17 kts | 239° |
| 2026-04-20 18:04 | 55.94306 | -3.38730 | 114 ft | 0 kts | 239° |
| 2026-04-20 18:05 | 55.94300 | -3.38746 | 113 ft | 2 kts | 239° |
| 2026-04-20 18:05 | 55.94283 | -3.38826 | 116 ft | 9 kts | 267° |
| 2026-04-20 18:05 | 55.94314 | -3.38896 | 114 ft | 7 kts | 324° |
| 2026-04-20 18:06 | 55.94352 | -3.38939 | 112 ft | 6 kts | 331° |
| 2026-04-20 18:06 | 55.94397 | -3.38968 | 114 ft | 7 kts | 358° |
| 2026-04-20 18:06 | 55.94431 | -3.38929 | 114 ft | 5 kts | 52° |
| 2026-04-20 18:06 | 55.94438 | -3.38913 | 114 ft | 0 kts | 54° |
| 2026-04-20 18:08 | 55.94454 | -3.38871 | 114 ft | 21 kts | 56° |
| 2026-04-20 18:08 | 55.94681 | -3.38213 | 114 ft | 99 kts | 59° |
| 2026-04-20 18:08 | 55.94960 | -3.37364 | 112 ft | 139 kts | 59° |
| 2026-04-20 18:09 | 55.95515 | -3.35693 | 386 ft | 163 kts | 59° |
| 2026-04-20 18:09 | 55.96164 | -3.33950 | 961 ft | 171 kts | 44° |
| 2026-04-20 18:09 | 55.97057 | -3.32524 | 1583 ft | 179 kts | 41° |
| 2026-04-20 18:09 | 55.98047 | -3.30962 | 1962 ft | 201 kts | 41° |
| 2026-04-20 18:10 | 55.99161 | -3.29204 | 2228 ft | 226 kts | 38° |
| 2026-04-20 18:10 | 56.00667 | -3.28126 | 2586 ft | 249 kts | 359° |
| 2026-04-20 18:10 | 56.02323 | -3.29092 | 3275 ft | 258 kts | 321° |
| 2026-04-20 18:10 | 56.03378 | -3.31843 | 4160 ft | 262 kts | 284° |
| 2026-04-20 18:11 | 56.03444 | -3.34937 | 5003 ft | 265 kts | 262° |
| 2026-04-20 18:11 | 56.03038 | -3.38271 | 5733 ft | 272 kts | 254° |
| 2026-04-20 18:11 | 56.02482 | -3.41461 | 5964 ft | 272 kts | 251° |
| 2026-04-20 18:11 | 56.01889 | -3.44657 | 5999 ft | 270 kts | 252° |
| 2026-04-20 18:12 | 56.01327 | -3.47810 | 6004 ft | 269 kts | 253° |
| 2026-04-20 18:12 | 56.00797 | -3.51008 | 6005 ft | 269 kts | 254° |
| 2026-04-20 18:12 | 56.00296 | -3.54232 | 6007 ft | 269 kts | 255° |
| 2026-04-20 18:12 | 55.99820 | -3.57446 | 6006 ft | 268 kts | 255° |
| 2026-04-20 18:13 | 55.99359 | -3.60682 | 6007 ft | 269 kts | 256° |
| 2026-04-20 18:13 | 55.98899 | -3.63928 | 6007 ft | 269 kts | 256° |
| 2026-04-20 18:13 | 55.98440 | -3.67167 | 6060 ft | 272 kts | 256° |
| 2026-04-20 18:13 | 55.97974 | -3.70418 | 6889 ft | 260 kts | 255° |
| 2026-04-20 18:14 | 55.97649 | -3.72649 | 7561 ft | 240 kts | 255° |
| 2026-04-20 18:15 | 55.97548 | -3.73356 | 7874 ft | 228 kts | 256° |
| 2026-04-20 18:16 | 55.97163 | -3.76035 | 8911 ft | 217 kts | 256° |
| 2026-04-20 18:16 | 55.96771 | -3.78747 | 9289 ft | 238 kts | 256° |
| 2026-04-20 18:16 | 55.96344 | -3.81708 | 9558 ft | 261 kts | 256° |
| 2026-04-20 18:16 | 55.95869 | -3.84970 | 9918 ft | 281 kts | 255° |
| 2026-04-20 18:17 | 55.95368 | -3.88388 | 10570 ft | 288 kts | 255° |
| 2026-04-20 18:17 | 55.94845 | -3.91984 | 10854 ft | 311 kts | 255° |
| 2026-04-20 18:17 | 55.94284 | -3.95835 | 11154 ft | 329 kts | 255° |
| 2026-04-20 18:17 | 55.93458 | -3.99694 | 11773 ft | 336 kts | 242° |
| 2026-04-20 18:18 | 55.92129 | -4.03155 | 12471 ft | 341 kts | 229° |
| 2026-04-20 18:18 | 55.90368 | -4.05983 | 13220 ft | 341 kts | 214° |
| 2026-04-20 18:18 | 55.88387 | -4.08347 | 13950 ft | 343 kts | 214° |
| 2026-04-20 18:18 | 55.86396 | -4.10766 | 14490 ft | 350 kts | 215° |
| 2026-04-20 18:19 | 55.84406 | -4.13218 | 15114 ft | 354 kts | 215° |
| 2026-04-20 18:19 | 55.82366 | -4.15735 | 15746 ft | 357 kts | 215° |
| 2026-04-20 18:19 | 55.80318 | -4.18257 | 16372 ft | 361 kts | 215° |
| 2026-04-20 18:19 | 55.78248 | -4.20802 | 16933 ft | 364 kts | 215° |
| 2026-04-20 18:20 | 55.76133 | -4.23323 | 17519 ft | 367 kts | 210° |
| 2026-04-20 18:20 | 55.73774 | -4.25123 | 18064 ft | 371 kts | 196° |
| 2026-04-20 18:20 | 55.71223 | -4.25858 | 18606 ft | 375 kts | 181° |
| 2026-04-20 18:20 | 55.68613 | -4.25447 | 19141 ft | 379 kts | 167° |
| 2026-04-20 18:21 | 55.66113 | -4.23907 | 19668 ft | 382 kts | 155° |
| 2026-04-20 18:21 | 55.63755 | -4.21843 | 20202 ft | 385 kts | 152° |
| 2026-04-20 18:21 | 55.61389 | -4.19561 | 20735 ft | 388 kts | 150° |
| 2026-04-20 18:21 | 55.59040 | -4.17180 | 21257 ft | 391 kts | 150° |
| 2026-04-20 18:22 | 55.56672 | -4.14748 | 21754 ft | 395 kts | 150° |
| 2026-04-20 18:22 | 55.54278 | -4.12319 | 22255 ft | 398 kts | 150° |
| 2026-04-20 18:22 | 55.51864 | -4.09915 | 22744 ft | 401 kts | 151° |
| 2026-04-20 18:22 | 55.49416 | -4.07516 | 23217 ft | 403 kts | 151° |
| 2026-04-20 18:23 | 55.46952 | -4.05127 | 23654 ft | 407 kts | 151° |
| 2026-04-20 18:23 | 55.44493 | -4.02749 | 24096 ft | 409 kts | 151° |
| 2026-04-20 18:23 | 55.41985 | -4.00322 | 24519 ft | 412 kts | 151° |
| 2026-04-20 18:23 | 55.39472 | -3.97888 | 24935 ft | 415 kts | 151° |
| 2026-04-20 18:24 | 55.36935 | -3.95438 | 25344 ft | 416 kts | 151° |
| 2026-04-20 18:24 | 55.34384 | -3.92984 | 25744 ft | 419 kts | 152° |
| 2026-04-20 18:24 | 55.31825 | -3.90525 | 26102 ft | 421 kts | 152° |
| 2026-04-20 18:24 | 55.29241 | -3.88046 | 26452 ft | 424 kts | 152° |
| 2026-04-20 18:25 | 55.26652 | -3.85564 | 26814 ft | 426 kts | 151° |
| 2026-04-20 18:25 | 55.24080 | -3.83091 | 27168 ft | 428 kts | 152° |
| 2026-04-20 18:25 | 55.21375 | -3.80888 | 27507 ft | 429 kts | 160° |
| 2026-04-20 18:25 | 55.18532 | -3.79274 | 27814 ft | 432 kts | 163° |
| 2026-04-20 18:26 | 55.15654 | -3.77694 | 28131 ft | 434 kts | 163° |
| 2026-04-20 18:26 | 55.12772 | -3.76117 | 28452 ft | 436 kts | 163° |
| 2026-04-20 18:26 | 55.09868 | -3.74530 | 28742 ft | 438 kts | 163° |
| 2026-04-20 18:26 | 55.06949 | -3.72935 | 29039 ft | 440 kts | 163° |
| 2026-04-20 18:27 | 55.04022 | -3.71339 | 29330 ft | 441 kts | 163° |
| 2026-04-20 18:27 | 55.01082 | -3.69738 | 29605 ft | 444 kts | 163° |
| 2026-04-20 18:27 | 54.98132 | -3.68135 | 29873 ft | 445 kts | 163° |
| 2026-04-20 18:27 | 54.95209 | -3.66547 | 30127 ft | 447 kts | 163° |
| 2026-04-20 18:28 | 54.92195 | -3.64912 | 30352 ft | 450 kts | 163° |
| 2026-04-20 18:28 | 54.89236 | -3.63310 | 30603 ft | 451 kts | 163° |
| 2026-04-20 18:28 | 54.86233 | -3.61683 | 30868 ft | 452 kts | 163° |
| 2026-04-20 18:28 | 54.83232 | -3.60063 | 31107 ft | 453 kts | 163° |
| 2026-04-20 18:29 | 54.80212 | -3.58433 | 31328 ft | 455 kts | 163° |
| 2026-04-20 18:29 | 54.77192 | -3.56806 | 31542 ft | 456 kts | 163° |
| 2026-04-20 18:29 | 54.74161 | -3.55178 | 31848 ft | 455 kts | 163° |
| 2026-04-20 18:29 | 54.71135 | -3.53554 | 32137 ft | 454 kts | 163° |
| 2026-04-20 18:30 | 54.68124 | -3.51941 | 32418 ft | 454 kts | 163° |
| 2026-04-20 18:30 | 54.65108 | -3.50325 | 32693 ft | 453 kts | 163° |
| 2026-04-20 18:30 | 54.62104 | -3.48723 | 32951 ft | 453 kts | 163° |
| 2026-04-20 18:30 | 54.59090 | -3.47121 | 33214 ft | 453 kts | 163° |
| 2026-04-20 18:31 | 54.56075 | -3.45514 | 33350 ft | 452 kts | 163° |
| 2026-04-20 18:31 | 54.53110 | -3.43933 | 33379 ft | 443 kts | 163° |
| 2026-04-20 18:31 | 54.47278 | -3.40844 | 33378 ft | 440 kts | 163° |
| 2026-04-20 18:32 | 54.41394 | -3.37732 | 33377 ft | 438 kts | 163° |
| 2026-04-20 18:32 | 54.35609 | -3.34680 | 33375 ft | 438 kts | 163° |
| 2026-04-20 18:33 | 54.29786 | -3.31618 | 33375 ft | 439 kts | 163° |
| 2026-04-20 18:33 | 54.23939 | -3.28546 | 33376 ft | 439 kts | 163° |
| 2026-04-20 18:34 | 54.18073 | -3.25690 | 33383 ft | 438 kts | 170° |
| 2026-04-20 18:34 | 54.12025 | -3.24600 | 33385 ft | 437 kts | 175° |
| 2026-04-20 18:35 | 54.05971 | -3.23645 | 33380 ft | 437 kts | 175° |
| 2026-04-20 18:35 | 53.99933 | -3.22366 | 33377 ft | 437 kts | 166° |
| 2026-04-20 18:36 | 53.94203 | -3.18973 | 33376 ft | 437 kts | 159° |
| 2026-04-20 18:36 | 53.88565 | -3.15323 | 33374 ft | 437 kts | 159° |
| 2026-04-20 18:37 | 53.82889 | -3.11665 | 33372 ft | 437 kts | 159° |
| 2026-04-20 18:37 | 53.77205 | -3.08022 | 33369 ft | 437 kts | 159° |
| 2026-04-20 18:38 | 53.71528 | -3.04395 | 33366 ft | 436 kts | 159° |
| 2026-04-20 18:38 | 53.65993 | -3.00873 | 33365 ft | 436 kts | 159° |
| 2026-04-20 18:39 | 53.60310 | -2.97257 | 33363 ft | 436 kts | 159° |
| 2026-04-20 18:39 | 53.54590 | -2.93625 | 33362 ft | 436 kts | 159° |
| 2026-04-20 18:40 | 53.48952 | -2.90065 | 33362 ft | 436 kts | 160° |
| 2026-04-20 18:40 | 53.43226 | -2.86464 | 33361 ft | 436 kts | 160° |
| 2026-04-20 18:41 | 53.37567 | -2.82917 | 33363 ft | 436 kts | 160° |
| 2026-04-20 18:41 | 53.31885 | -2.79353 | 33365 ft | 436 kts | 160° |
| 2026-04-20 18:42 | 53.26230 | -2.75822 | 33364 ft | 436 kts | 160° |
| 2026-04-20 18:42 | 53.20545 | -2.72275 | 33364 ft | 436 kts | 160° |
| 2026-04-20 18:43 | 53.14857 | -2.68727 | 33361 ft | 437 kts | 160° |
| 2026-04-20 18:43 | 53.09170 | -2.65187 | 33363 ft | 436 kts | 160° |
| 2026-04-20 18:44 | 53.03469 | -2.61670 | 33363 ft | 436 kts | 160° |
| 2026-04-20 18:44 | 52.97772 | -2.58179 | 33365 ft | 437 kts | 160° |
| 2026-04-20 18:45 | 52.92073 | -2.54693 | 33366 ft | 437 kts | 160° |
| 2026-04-20 18:45 | 52.86436 | -2.51235 | 33041 ft | 431 kts | 160° |
| 2026-04-20 18:46 | 52.83636 | -2.49518 | 32555 ft | 427 kts | 160° |
| 2026-04-20 18:46 | 52.80927 | -2.47563 | 32057 ft | 423 kts | 152° |
| 2026-04-20 18:46 | 52.78425 | -2.45069 | 31560 ft | 420 kts | 146° |
| 2026-04-20 18:46 | 52.76011 | -2.42383 | 31064 ft | 416 kts | 146° |
| 2026-04-20 18:47 | 52.73610 | -2.39728 | 30570 ft | 413 kts | 146° |
| 2026-04-20 18:47 | 52.71223 | -2.37103 | 30081 ft | 410 kts | 146° |
| 2026-04-20 18:47 | 52.68861 | -2.34512 | 29605 ft | 407 kts | 146° |
| 2026-04-20 18:47 | 52.66524 | -2.31949 | 29129 ft | 404 kts | 146° |
| 2026-04-20 18:48 | 52.64186 | -2.29387 | 28659 ft | 401 kts | 146° |
| 2026-04-20 18:48 | 52.61873 | -2.26852 | 28191 ft | 398 kts | 146° |
| 2026-04-20 18:48 | 52.59582 | -2.24342 | 27724 ft | 395 kts | 146° |
| 2026-04-20 18:48 | 52.57299 | -2.21842 | 27263 ft | 392 kts | 146° |
| 2026-04-20 18:49 | 52.55032 | -2.19367 | 26877 ft | 389 kts | 147° |
| 2026-04-20 18:49 | 52.52781 | -2.16916 | 26612 ft | 389 kts | 147° |
| 2026-04-20 18:49 | 52.50501 | -2.14429 | 26358 ft | 388 kts | 146° |
| 2026-04-20 18:49 | 52.48256 | -2.11976 | 26106 ft | 387 kts | 146° |
| 2026-04-20 18:50 | 52.46018 | -2.09536 | 25856 ft | 385 kts | 147° |
| 2026-04-20 18:50 | 52.43791 | -2.07126 | 25606 ft | 384 kts | 147° |
| 2026-04-20 18:50 | 52.41578 | -2.04737 | 25350 ft | 382 kts | 147° |
| 2026-04-20 18:50 | 52.39353 | -2.02333 | 25105 ft | 381 kts | 147° |
| 2026-04-20 18:51 | 52.37144 | -1.99947 | 24850 ft | 379 kts | 147° |
| 2026-04-20 18:51 | 52.34941 | -1.97572 | 24605 ft | 378 kts | 147° |
| 2026-04-20 18:51 | 52.32757 | -1.95213 | 24355 ft | 376 kts | 147° |
| 2026-04-20 18:51 | 52.30575 | -1.92857 | 24104 ft | 375 kts | 147° |
| 2026-04-20 18:52 | 52.28401 | -1.90515 | 23851 ft | 373 kts | 147° |
| 2026-04-20 18:52 | 52.26249 | -1.88197 | 23584 ft | 368 kts | 147° |
| 2026-04-20 18:52 | 52.24145 | -1.85935 | 23168 ft | 365 kts | 147° |
| 2026-04-20 18:52 | 52.22035 | -1.83673 | 22740 ft | 362 kts | 147° |
| 2026-04-20 18:53 | 52.19932 | -1.81422 | 22313 ft | 360 kts | 147° |
| 2026-04-20 18:53 | 52.17842 | -1.79187 | 21893 ft | 359 kts | 147° |
| 2026-04-20 18:53 | 52.15763 | -1.76963 | 21681 ft | 356 kts | 147° |
| 2026-04-20 18:53 | 52.13698 | -1.74747 | 22103 ft | 358 kts | 147° |
| 2026-04-20 18:54 | 52.11601 | -1.72499 | 22322 ft | 363 kts | 147° |
| 2026-04-20 18:54 | 52.09495 | -1.70261 | 22198 ft | 361 kts | 147° |
| 2026-04-20 18:54 | 52.07392 | -1.68035 | 21745 ft | 360 kts | 147° |
| 2026-04-20 18:54 | 52.05279 | -1.65799 | 21307 ft | 357 kts | 147° |
| 2026-04-20 18:55 | 52.03200 | -1.63596 | 20878 ft | 355 kts | 147° |
| 2026-04-20 18:55 | 52.01135 | -1.61407 | 20461 ft | 353 kts | 147° |
| 2026-04-20 18:55 | 51.99091 | -1.59239 | 20045 ft | 351 kts | 147° |
| 2026-04-20 18:55 | 51.97052 | -1.57078 | 19631 ft | 349 kts | 147° |
| 2026-04-20 18:56 | 51.95051 | -1.54960 | 19229 ft | 347 kts | 147° |
| 2026-04-20 18:56 | 51.93040 | -1.52840 | 18835 ft | 345 kts | 147° |
| 2026-04-20 18:56 | 51.91035 | -1.50725 | 18427 ft | 342 kts | 147° |
| 2026-04-20 18:56 | 51.89049 | -1.48631 | 18038 ft | 340 kts | 147° |
| 2026-04-20 18:57 | 51.87068 | -1.46546 | 17648 ft | 338 kts | 147° |
| 2026-04-20 18:57 | 51.85098 | -1.44477 | 17260 ft | 336 kts | 147° |
| 2026-04-20 18:57 | 51.83147 | -1.42429 | 16867 ft | 334 kts | 147° |
| 2026-04-20 18:57 | 51.81200 | -1.40388 | 16495 ft | 332 kts | 147° |
| 2026-04-20 18:58 | 51.79271 | -1.38366 | 16120 ft | 330 kts | 147° |
| 2026-04-20 18:58 | 51.77347 | -1.36349 | 15748 ft | 328 kts | 147° |
| 2026-04-20 18:58 | 51.75433 | -1.34346 | 15375 ft | 326 kts | 147° |
| 2026-04-20 18:58 | 51.73534 | -1.32362 | 14999 ft | 325 kts | 147° |
| 2026-04-20 18:59 | 51.71648 | -1.30393 | 14617 ft | 323 kts | 147° |
| 2026-04-20 18:59 | 51.69762 | -1.28430 | 14344 ft | 322 kts | 147° |
| 2026-04-20 18:59 | 51.67879 | -1.26472 | 14099 ft | 321 kts | 147° |
| 2026-04-20 18:59 | 51.66009 | -1.24525 | 13848 ft | 320 kts | 147° |
| 2026-04-20 19:00 | 51.64139 | -1.22582 | 13598 ft | 319 kts | 147° |
| 2026-04-20 19:00 | 51.62275 | -1.20650 | 13345 ft | 318 kts | 147° |
| 2026-04-20 19:00 | 51.60422 | -1.18733 | 13090 ft | 317 kts | 147° |
| 2026-04-20 19:00 | 51.58596 | -1.16843 | 12850 ft | 315 kts | 147° |
| 2026-04-20 19:01 | 51.56757 | -1.14944 | 12600 ft | 314 kts | 147° |
| 2026-04-20 19:01 | 51.54919 | -1.13046 | 12350 ft | 313 kts | 147° |
| 2026-04-20 19:01 | 51.53085 | -1.11149 | 12098 ft | 312 kts | 147° |
| 2026-04-20 19:01 | 51.51269 | -1.09273 | 11850 ft | 311 kts | 147° |
| 2026-04-20 19:02 | 51.49450 | -1.07394 | 11599 ft | 310 kts | 147° |
| 2026-04-20 19:02 | 51.47636 | -1.05524 | 11336 ft | 309 kts | 147° |
| 2026-04-20 19:02 | 51.45839 | -1.03675 | 11098 ft | 307 kts | 147° |
| 2026-04-20 19:02 | 51.44040 | -1.01823 | 10847 ft | 306 kts | 147° |
| 2026-04-20 19:03 | 51.42254 | -0.99987 | 10597 ft | 305 kts | 148° |
| 2026-04-20 19:03 | 51.40469 | -0.98157 | 10346 ft | 303 kts | 148° |
| 2026-04-20 19:03 | 51.38721 | -0.96363 | 10197 ft | 293 kts | 148° |
| 2026-04-20 19:03 | 51.37020 | -0.94620 | 10081 ft | 290 kts | 148° |
| 2026-04-20 19:04 | 51.35325 | -0.92882 | 9948 ft | 289 kts | 147° |
| 2026-04-20 19:04 | 51.33657 | -0.91173 | 9825 ft | 288 kts | 148° |
| 2026-04-20 19:04 | 51.31951 | -0.89431 | 9698 ft | 288 kts | 148° |
| 2026-04-20 19:04 | 51.30287 | -0.87735 | 9573 ft | 287 kts | 148° |
| 2026-04-20 19:05 | 51.28609 | -0.86025 | 9448 ft | 286 kts | 148° |
| 2026-04-20 19:05 | 51.26931 | -0.84313 | 9366 ft | 285 kts | 148° |
| 2026-04-20 19:05 | 51.25255 | -0.82603 | 9362 ft | 285 kts | 148° |
| 2026-04-20 19:05 | 51.23593 | -0.80909 | 9031 ft | 283 kts | 148° |
| 2026-04-20 19:06 | 51.21934 | -0.79220 | 8632 ft | 282 kts | 148° |
| 2026-04-20 19:06 | 51.20283 | -0.77543 | 8241 ft | 280 kts | 148° |
| 2026-04-20 19:06 | 51.18644 | -0.75888 | 7854 ft | 279 kts | 148° |
| 2026-04-20 19:06 | 51.17009 | -0.74236 | 7469 ft | 277 kts | 148° |
| 2026-04-20 19:07 | 51.15395 | -0.72600 | 7368 ft | 276 kts | 148° |
| 2026-04-20 19:07 | 51.13770 | -0.70952 | 7378 ft | 277 kts | 148° |
| 2026-04-20 19:07 | 51.12139 | -0.69303 | 7378 ft | 277 kts | 148° |
| 2026-04-20 19:07 | 51.10512 | -0.67660 | 7376 ft | 277 kts | 148° |
| 2026-04-20 19:08 | 51.08879 | -0.66013 | 7374 ft | 277 kts | 148° |
| 2026-04-20 19:08 | 51.05759 | -0.62423 | 7377 ft | 278 kts | 133° |
| 2026-04-20 19:08 | 51.04610 | -0.59971 | 7380 ft | 278 kts | 120° |
| 2026-04-20 19:09 | 51.03755 | -0.57260 | 7379 ft | 278 kts | 116° |
| 2026-04-20 19:09 | 51.02901 | -0.54513 | 7377 ft | 278 kts | 116° |
| 2026-04-20 19:09 | 51.02037 | -0.51761 | 7377 ft | 278 kts | 116° |
| 2026-04-20 19:09 | 51.01174 | -0.49015 | 7377 ft | 278 kts | 116° |
| 2026-04-20 19:10 | 51.00308 | -0.46263 | 7378 ft | 278 kts | 116° |
| 2026-04-20 19:10 | 50.99447 | -0.43524 | 7376 ft | 278 kts | 116° |
| 2026-04-20 19:10 | 50.98860 | -0.41661 | 7377 ft | 278 kts | 117° |
| 2026-04-20 19:10 | 50.97997 | -0.38921 | 7376 ft | 278 kts | 117° |
| 2026-04-20 19:11 | 50.97131 | -0.36174 | 7377 ft | 278 kts | 116° |
| 2026-04-20 19:11 | 50.96268 | -0.33435 | 7377 ft | 278 kts | 117° |
| 2026-04-20 19:11 | 50.95432 | -0.30788 | 7374 ft | 263 kts | 117° |
| 2026-04-20 19:11 | 50.94635 | -0.28270 | 7378 ft | 250 kts | 117° |
| 2026-04-20 19:12 | 50.93857 | -0.25816 | 7378 ft | 249 kts | 117° |
| 2026-04-20 19:12 | 50.93079 | -0.23364 | 7375 ft | 248 kts | 117° |
| 2026-04-20 19:12 | 50.92306 | -0.20929 | 7377 ft | 247 kts | 117° |
| 2026-04-20 19:12 | 50.91534 | -0.18506 | 7379 ft | 247 kts | 117° |
| 2026-04-20 19:13 | 50.90759 | -0.16077 | 7376 ft | 247 kts | 117° |
| 2026-04-20 19:13 | 50.89987 | -0.13648 | 7377 ft | 247 kts | 117° |
| 2026-04-20 19:13 | 50.89215 | -0.11215 | 7376 ft | 247 kts | 117° |
| 2026-04-20 19:13 | 50.88478 | -0.08804 | 7378 ft | 247 kts | 110° |
| 2026-04-20 19:14 | 50.88218 | -0.06135 | 7375 ft | 247 kts | 85° |
| 2026-04-20 19:14 | 50.88659 | -0.03541 | 7377 ft | 246 kts | 61° |
| 2026-04-20 19:14 | 50.89705 | -0.01445 | 7380 ft | 243 kts | 38° |
| 2026-04-20 19:14 | 50.91176 | -0.00174 | 7378 ft | 241 kts | 15° |
| 2026-04-20 19:15 | 50.92829 | 0.00092 | 7377 ft | 240 kts | 352° |
| 2026-04-20 19:15 | 50.94420 | -0.00673 | 7377 ft | 240 kts | 330° |
| 2026-04-20 19:15 | 50.95693 | -0.02342 | 7377 ft | 239 kts | 307° |
| 2026-04-20 19:15 | 50.96461 | -0.04664 | 7377 ft | 238 kts | 285° |
| 2026-04-20 19:16 | 50.96858 | -0.07220 | 7378 ft | 238 kts | 282° |
| 2026-04-20 19:16 | 50.97219 | -0.09789 | 7377 ft | 239 kts | 282° |
| 2026-04-20 19:16 | 50.97570 | -0.12361 | 7379 ft | 239 kts | 282° |
| 2026-04-20 19:16 | 50.97916 | -0.14902 | 7376 ft | 239 kts | 282° |
| 2026-04-20 19:17 | 50.98268 | -0.17465 | 7374 ft | 236 kts | 282° |
| 2026-04-20 19:17 | 50.98617 | -0.19978 | 7151 ft | 232 kts | 281° |
| 2026-04-20 19:17 | 50.98626 | -0.22494 | 6860 ft | 229 kts | 253° |
| 2026-04-20 19:17 | 50.98138 | -0.24891 | 6523 ft | 229 kts | 257° |
| 2026-04-20 19:18 | 50.97880 | -0.27384 | 6210 ft | 229 kts | 262° |
| 2026-04-20 19:18 | 50.97688 | -0.29883 | 5921 ft | 227 kts | 263° |
| 2026-04-20 19:18 | 50.97504 | -0.32343 | 5704 ft | 222 kts | 263° |
| 2026-04-20 19:18 | 50.97322 | -0.34806 | 5416 ft | 221 kts | 263° |
| 2026-04-20 19:19 | 50.97146 | -0.37175 | 5221 ft | 216 kts | 263° |
| 2026-04-20 19:19 | 50.96980 | -0.39523 | 5005 ft | 213 kts | 266° |
| 2026-04-20 19:19 | 50.96938 | -0.41829 | 4740 ft | 212 kts | 270° |
| 2026-04-20 19:19 | 50.96940 | -0.44145 | 4550 ft | 206 kts | 270° |
| 2026-04-20 19:20 | 50.96947 | -0.46389 | 4342 ft | 202 kts | 270° |
| 2026-04-20 19:20 | 50.96954 | -0.48612 | 4084 ft | 201 kts | 270° |
| 2026-04-20 19:20 | 50.97079 | -0.50808 | 3818 ft | 199 kts | 289° |
| 2026-04-20 19:20 | 50.97801 | -0.52642 | 3696 ft | 198 kts | 319° |
| 2026-04-20 19:21 | 50.99007 | -0.53632 | 3562 ft | 198 kts | 349° |
| 2026-04-20 19:21 | 51.00366 | -0.53483 | 3445 ft | 198 kts | 21° |
| 2026-04-20 19:21 | 51.01620 | -0.52564 | 3329 ft | 199 kts | 25° |
| 2026-04-20 19:21 | 51.02868 | -0.51631 | 3213 ft | 198 kts | 24° |
| 2026-04-20 19:22 | 51.04119 | -0.50701 | 3133 ft | 198 kts | 24° |
| 2026-04-20 19:22 | 51.05369 | -0.49774 | 3113 ft | 198 kts | 24° |
| 2026-04-20 19:22 | 51.06603 | -0.48857 | 3112 ft | 193 kts | 24° |
| 2026-04-20 19:22 | 51.07811 | -0.47960 | 3145 ft | 192 kts | 24° |
| 2026-04-20 19:23 | 51.09016 | -0.47062 | 3113 ft | 191 kts | 24° |
| 2026-04-20 19:23 | 51.10186 | -0.46078 | 3104 ft | 191 kts | 36° |
| 2026-04-20 19:23 | 51.11082 | -0.44534 | 3082 ft | 192 kts | 59° |
| 2026-04-20 19:23 | 51.11540 | -0.42555 | 2915 ft | 191 kts | 77° |
| 2026-04-20 19:24 | 51.11826 | -0.40501 | 2683 ft | 190 kts | 77° |
| 2026-04-20 19:24 | 51.12110 | -0.38469 | 2433 ft | 183 kts | 77° |
| 2026-04-20 19:24 | 51.12378 | -0.36551 | 2199 ft | 172 kts | 77° |
| 2026-04-20 19:24 | 51.12631 | -0.34741 | 1977 ft | 163 kts | 77° |
| 2026-04-20 19:25 | 51.12868 | -0.33039 | 1762 ft | 153 kts | 77° |
| 2026-04-20 19:25 | 51.13095 | -0.31411 | 1570 ft | 149 kts | 77° |
| 2026-04-20 19:25 | 51.13318 | -0.29813 | 1375 ft | 147 kts | 77° |
| 2026-04-20 19:25 | 51.13537 | -0.28239 | 1206 ft | 145 kts | 77° |
| 2026-04-20 19:26 | 51.13762 | -0.26619 | 996 ft | 143 kts | 77° |
| 2026-04-20 19:26 | 51.13975 | -0.25089 | 800 ft | 142 kts | 77° |
| 2026-04-20 19:26 | 51.14187 | -0.23555 | 611 ft | 141 kts | 77° |
| 2026-04-20 19:26 | 51.14399 | -0.22028 | 417 ft | 141 kts | 77° |
| 2026-04-20 19:27 | 51.14608 | -0.20510 | 239 ft | 140 kts | 78° |
| 2026-04-20 19:27 | 51.14799 | -0.19081 | 214 ft | 116 kts | 78° |
| 2026-04-20 19:27 | 51.14925 | -0.18239 | 203 ft | 40 kts | 72° |
| 2026-04-20 19:27 | 51.15010 | -0.17905 | 211 ft | 13 kts | 62° |
| 2026-04-20 19:28 | 51.15048 | -0.17809 | 211 ft | 7 kts | 52° |
| 2026-04-20 19:28 | 51.15056 | -0.17796 | 214 ft | 0 kts | 48° |
| 2026-04-20 19:28 | 51.15058 | -0.17792 | 205 ft | 0 kts | 47° |
| 2026-04-20 19:28 | 51.15066 | -0.17778 | 206 ft | 0 kts | 46° |
| 2026-04-20 19:29 | 51.15115 | -0.17746 | 213 ft | 17 kts | 15° |
| 2026-04-20 19:30 | 51.15145 | -0.17737 | 212 ft | 1 kts | 6° |
| 2026-04-20 19:30 | 51.15189 | -0.17753 | 213 ft | 12 kts | 345° |
| 2026-04-20 19:30 | 51.15275 | -0.17708 | 206 ft | 15 kts | 82° |
| 2026-04-20 19:30 | 51.15299 | -0.17501 | 210 ft | 23 kts | 77° |
| 2026-04-20 19:31 | 51.15310 | -0.17339 | 206 ft | 10 kts | 84° |
| 2026-04-20 19:31 | 51.15314 | -0.17272 | 204 ft | 0 kts | 82° |
| 2026-04-20 19:32 | 51.15315 | -0.17270 | 204 ft | 1 kts | 82° |
| 2026-04-20 19:32 | 51.15329 | -0.17240 | 215 ft | 9 kts | 34° |
| 2026-04-20 19:32 | 51.15355 | -0.17237 | 209 ft | 0 kts | 0° |